sensor_id;sensor_type;location;lat;lon;timestamp;P1;durP1;ratioP1;P2;durP2;ratioP2
26512;SDS011;14186;53.822;10.152;2023-07-28T00:01:39;8.43;;;5.55;;
26512;SDS011;14186;53.822;10.152;2023-07-28T00:06:40;7.78;;;5.95;;
26512;SDS011;14186;53.822;10.152;2023-07-28T00:11:40;7.35;;;5.75;;
26512;SDS011;14186;53.822;10.152;2023-07-28T00:16:41;7.80;;;6.63;;
26512;SDS011;14186;53.822;10.152;2023-07-28T00:21:42;7.38;;;5.60;;
26512;SDS011;14186;53.822;10.152;2023-07-28T00:26:42;7.75;;;6.03;;
26512;SDS011;14186;53.822;10.152;2023-07-28T00:31:43;8.48;;;5.97;;
26512;SDS011;14186;53.822;10.152;2023-07-28T00:36:44;7.47;;;5.95;;
26512;SDS011;14186;53.822;10.152;2023-07-28T00:41:45;7.97;;;6.28;;
26512;SDS011;14186;53.822;10.152;2023-07-28T00:46:45;8.02;;;6.15;;
26512;SDS011;14186;53.822;10.152;2023-07-28T00:51:46;8.10;;;6.80;;
26512;SDS011;14186;53.822;10.152;2023-07-28T00:56:47;8.27;;;6.53;;
26512;SDS011;14186;53.822;10.152;2023-07-28T01:01:48;7.55;;;6.50;;
26512;SDS011;14186;53.822;10.152;2023-07-28T01:06:51;8.55;;;6.72;;
26512;SDS011;14186;53.822;10.152;2023-07-28T01:11:53;9.25;;;7.07;;
26512;SDS011;14186;53.822;10.152;2023-07-28T01:16:53;8.50;;;6.80;;
26512;SDS011;14186;53.822;10.152;2023-07-28T01:21:57;10.10;;;8.00;;
26512;SDS011;14186;53.822;10.152;2023-07-28T01:26:58;8.35;;;6.90;;
26512;SDS011;14186;53.822;10.152;2023-07-28T01:31:59;10.30;;;7.60;;
26512;SDS011;14186;53.822;10.152;2023-07-28T01:36:59;11.32;;;8.40;;
26512;SDS011;14186;53.822;10.152;2023-07-28T01:42:01;14.00;;;9.48;;
26512;SDS011;14186;53.822;10.152;2023-07-28T01:47:01;13.55;;;9.75;;
26512;SDS011;14186;53.822;10.152;2023-07-28T01:52:01;13.63;;;9.95;;
26512;SDS011;14186;53.822;10.152;2023-07-28T01:57:03;12.82;;;9.30;;
26512;SDS011;14186;53.822;10.152;2023-07-28T02:02:03;14.77;;;10.40;;
26512;SDS011;14186;53.822;10.152;2023-07-28T02:07:04;12.02;;;9.30;;
26512;SDS011;14186;53.822;10.152;2023-07-28T02:12:06;13.40;;;10.30;;
26512;SDS011;14186;53.822;10.152;2023-07-28T02:17:06;11.43;;;9.30;;
26512;SDS011;14186;53.822;10.152;2023-07-28T02:22:06;10.98;;;8.88;;
26512;SDS011;14186;53.822;10.152;2023-07-28T02:27:08;10.52;;;8.38;;
26512;SDS011;14186;53.822;10.152;2023-07-28T02:32:08;11.00;;;8.27;;
26512;SDS011;14186;53.822;10.152;2023-07-28T02:37:08;10.23;;;7.65;;
26512;SDS011;14186;53.822;10.152;2023-07-28T02:42:11;12.00;;;8.32;;
26512;SDS011;14186;53.822;10.152;2023-07-28T02:47:11;10.65;;;8.45;;
26512;SDS011;14186;53.822;10.152;2023-07-28T02:52:11;9.30;;;7.80;;
26512;SDS011;14186;53.822;10.152;2023-07-28T02:57:13;13.30;;;8.32;;
26512;SDS011;14186;53.822;10.152;2023-07-28T03:02:13;9.88;;;8.13;;
26512;SDS011;14186;53.822;10.152;2023-07-28T03:07:13;10.25;;;7.75;;
26512;SDS011;14186;53.822;10.152;2023-07-28T03:12:15;11.20;;;8.70;;
26512;SDS011;14186;53.822;10.152;2023-07-28T03:17:15;11.45;;;8.95;;
26512;SDS011;14186;53.822;10.152;2023-07-28T03:22:15;11.80;;;9.43;;
26512;SDS011;14186;53.822;10.152;2023-07-28T03:27:17;10.57;;;7.72;;
26512;SDS011;14186;53.822;10.152;2023-07-28T03:32:17;11.93;;;8.85;;
26512;SDS011;14186;53.822;10.152;2023-07-28T03:37:17;10.20;;;7.70;;
26512;SDS011;14186;53.822;10.152;2023-07-28T03:42:19;12.38;;;8.73;;
26512;SDS011;14186;53.822;10.152;2023-07-28T03:47:19;12.25;;;9.00;;
26512;SDS011;14186;53.822;10.152;2023-07-28T03:52:20;12.07;;;9.13;;
26512;SDS011;14186;53.822;10.152;2023-07-28T03:57:21;11.70;;;8.52;;
26512;SDS011;14186;53.822;10.152;2023-07-28T04:02:21;13.18;;;9.68;;
26512;SDS011;14186;53.822;10.152;2023-07-28T04:07:22;12.98;;;9.60;;
26512;SDS011;14186;53.822;10.152;2023-07-28T04:12:23;12.43;;;9.15;;
26512;SDS011;14186;53.822;10.152;2023-07-28T04:17:23;11.43;;;8.70;;
26512;SDS011;14186;53.822;10.152;2023-07-28T04:22:24;12.68;;;9.23;;
26512;SDS011;14186;53.822;10.152;2023-07-28T04:27:25;11.48;;;9.02;;
26512;SDS011;14186;53.822;10.152;2023-07-28T04:32:25;12.65;;;9.57;;
26512;SDS011;14186;53.822;10.152;2023-07-28T04:37:26;11.63;;;8.68;;
26512;SDS011;14186;53.822;10.152;2023-07-28T04:42:27;13.07;;;8.70;;
26512;SDS011;14186;53.822;10.152;2023-07-28T04:47:27;14.25;;;9.15;;
26512;SDS011;14186;53.822;10.152;2023-07-28T04:52:28;11.25;;;8.43;;
26512;SDS011;14186;53.822;10.152;2023-07-28T04:57:29;13.73;;;9.10;;
26512;SDS011;14186;53.822;10.152;2023-07-28T05:02:30;13.50;;;10.00;;
26512;SDS011;14186;53.822;10.152;2023-07-28T05:07:30;11.75;;;9.15;;
26512;SDS011;14186;53.822;10.152;2023-07-28T05:12:31;13.10;;;9.50;;
26512;SDS011;14186;53.822;10.152;2023-07-28T05:17:32;12.43;;;9.63;;
26512;SDS011;14186;53.822;10.152;2023-07-28T05:22:32;13.02;;;9.07;;
26512;SDS011;14186;53.822;10.152;2023-07-28T05:27:33;11.85;;;9.02;;
26512;SDS011;14186;53.822;10.152;2023-07-28T05:32:34;12.52;;;8.95;;
26512;SDS011;14186;53.822;10.152;2023-07-28T05:37:34;11.18;;;8.55;;
26512;SDS011;14186;53.822;10.152;2023-07-28T05:42:35;11.88;;;9.00;;
26512;SDS011;14186;53.822;10.152;2023-07-28T05:47:36;12.63;;;9.63;;
26512;SDS011;14186;53.822;10.152;2023-07-28T05:52:36;10.02;;;8.35;;
26512;SDS011;14186;53.822;10.152;2023-07-28T05:57:37;12.43;;;9.18;;
26512;SDS011;14186;53.822;10.152;2023-07-28T06:02:38;11.15;;;7.78;;
26512;SDS011;14186;53.822;10.152;2023-07-28T06:07:38;10.57;;;7.95;;
26512;SDS011;14186;53.822;10.152;2023-07-28T06:12:42;8.00;;;6.97;;
26512;SDS011;14186;53.822;10.152;2023-07-28T06:17:42;8.60;;;6.25;;
26512;SDS011;14186;53.822;10.152;2023-07-28T06:22:42;9.43;;;6.25;;
26512;SDS011;14186;53.822;10.152;2023-07-28T06:27:44;7.28;;;4.63;;
26512;SDS011;14186;53.822;10.152;2023-07-28T06:32:44;6.20;;;4.65;;
26512;SDS011;14186;53.822;10.152;2023-07-28T06:37:44;7.75;;;4.50;;
26512;SDS011;14186;53.822;10.152;2023-07-28T06:42:45;6.60;;;4.45;;
26512;SDS011;14186;53.822;10.152;2023-07-28T06:47:46;6.68;;;3.55;;
26512;SDS011;14186;53.822;10.152;2023-07-28T06:52:46;4.70;;;3.47;;
26512;SDS011;14186;53.822;10.152;2023-07-28T06:57:48;9.25;;;4.30;;
26512;SDS011;14186;53.822;10.152;2023-07-28T07:02:48;5.25;;;3.55;;
26512;SDS011;14186;53.822;10.152;2023-07-28T07:07:48;5.45;;;3.33;;
26512;SDS011;14186;53.822;10.152;2023-07-28T07:12:50;4.47;;;2.70;;
26512;SDS011;14186;53.822;10.152;2023-07-28T07:17:50;4.93;;;2.92;;
26512;SDS011;14186;53.822;10.152;2023-07-28T07:22:50;5.53;;;3.13;;
26512;SDS011;14186;53.822;10.152;2023-07-28T07:27:52;4.63;;;2.42;;
26512;SDS011;14186;53.822;10.152;2023-07-28T07:32:52;4.10;;;2.58;;
26512;SDS011;14186;53.822;10.152;2023-07-28T07:37:52;6.97;;;2.65;;
26512;SDS011;14186;53.822;10.152;2023-07-28T07:42:54;3.47;;;2.15;;
26512;SDS011;14186;53.822;10.152;2023-07-28T07:47:54;3.55;;;1.75;;
26512;SDS011;14186;53.822;10.152;2023-07-28T07:52:54;3.08;;;1.70;;
26512;SDS011;14186;53.822;10.152;2023-07-28T07:57:56;3.50;;;1.77;;
26512;SDS011;14186;53.822;10.152;2023-07-28T08:02:56;4.22;;;1.35;;
26512;SDS011;14186;53.822;10.152;2023-07-28T08:07:56;2.53;;;1.50;;
26512;SDS011;14186;53.822;10.152;2023-07-28T08:12:58;3.30;;;1.67;;
26512;SDS011;14186;53.822;10.152;2023-07-28T08:17:58;3.00;;;1.90;;
26512;SDS011;14186;53.822;10.152;2023-07-28T08:22:58;2.65;;;1.50;;
26512;SDS011;14186;53.822;10.152;2023-07-28T08:28:00;3.70;;;1.73;;
26512;SDS011;14186;53.822;10.152;2023-07-28T08:33:00;3.90;;;1.70;;
26512;SDS011;14186;53.822;10.152;2023-07-28T08:38:00;1.92;;;1.35;;
26512;SDS011;14186;53.822;10.152;2023-07-28T08:43:02;2.20;;;1.30;;
26512;SDS011;14186;53.822;10.152;2023-07-28T08:48:02;2.50;;;1.25;;
26512;SDS011;14186;53.822;10.152;2023-07-28T08:53:02;1.87;;;1.17;;
26512;SDS011;14186;53.822;10.152;2023-07-28T08:58:17;4.32;;;1.00;;
26512;SDS011;14186;53.822;10.152;2023-07-28T09:08:18;5.72;;;1.20;;
26512;SDS011;14186;53.822;10.152;2023-07-28T09:13:19;1.25;;;0.70;;
26512;SDS011;14186;53.822;10.152;2023-07-28T09:18:20;1.60;;;1.00;;
26512;SDS011;14186;53.822;10.152;2023-07-28T09:23:28;1.05;;;0.70;;
26512;SDS011;14186;53.822;10.152;2023-07-28T09:28:37;1.70;;;0.90;;
26512;SDS011;14186;53.822;10.152;2023-07-28T09:33:37;1.85;;;0.85;;
26512;SDS011;14186;53.822;10.152;2023-07-28T09:38:39;4.60;;;1.77;;
26512;SDS011;14186;53.822;10.152;2023-07-28T09:43:41;2.33;;;0.80;;
26512;SDS011;14186;53.822;10.152;2023-07-28T09:48:42;3.63;;;0.88;;
26512;SDS011;14186;53.822;10.152;2023-07-28T09:53:46;1.02;;;0.70;;
26512;SDS011;14186;53.822;10.152;2023-07-28T09:58:50;3.75;;;1.02;;
26512;SDS011;14186;53.822;10.152;2023-07-28T10:03:51;1.38;;;0.50;;
26512;SDS011;14186;53.822;10.152;2023-07-28T10:08:51;1.77;;;1.00;;
26512;SDS011;14186;53.822;10.152;2023-07-28T10:13:53;1.30;;;0.70;;
26512;SDS011;14186;53.822;10.152;2023-07-28T10:18:54;0.85;;;0.50;;
26512;SDS011;14186;53.822;10.152;2023-07-28T10:23:54;1.63;;;0.80;;
26512;SDS011;14186;53.822;10.152;2023-07-28T10:28:56;2.47;;;0.70;;
26512;SDS011;14186;53.822;10.152;2023-07-28T10:34:07;1.63;;;0.70;;
26512;SDS011;14186;53.822;10.152;2023-07-28T10:39:12;0.82;;;0.55;;
26512;SDS011;14186;53.822;10.152;2023-07-28T10:44:13;2.20;;;0.60;;
26512;SDS011;14186;53.822;10.152;2023-07-28T10:49:14;1.83;;;0.70;;
26512;SDS011;14186;53.822;10.152;2023-07-28T10:54:16;1.10;;;0.80;;
26512;SDS011;14186;53.822;10.152;2023-07-28T10:59:17;1.38;;;0.70;;
26512;SDS011;14186;53.822;10.152;2023-07-28T11:04:18;1.80;;;0.70;;
26512;SDS011;14186;53.822;10.152;2023-07-28T11:09:19;0.85;;;0.60;;
26512;SDS011;14186;53.822;10.152;2023-07-28T11:14:21;0.90;;;0.60;;
26512;SDS011;14186;53.822;10.152;2023-07-28T11:19:21;1.13;;;0.70;;
26512;SDS011;14186;53.822;10.152;2023-07-28T11:24:21;1.05;;;0.68;;
26512;SDS011;14186;53.822;10.152;2023-07-28T11:29:23;2.08;;;1.00;;
26512;SDS011;14186;53.822;10.152;2023-07-28T11:34:23;3.97;;;0.95;;
26512;SDS011;14186;53.822;10.152;2023-07-28T11:39:23;2.15;;;0.95;;
26512;SDS011;14186;53.822;10.152;2023-07-28T11:44:25;1.85;;;1.02;;
26512;SDS011;14186;53.822;10.152;2023-07-28T11:49:25;1.20;;;0.70;;
26512;SDS011;14186;53.822;10.152;2023-07-28T11:54:26;1.25;;;0.70;;
26512;SDS011;14186;53.822;10.152;2023-07-28T11:59:27;0.57;;;0.57;;
26512;SDS011;14186;53.822;10.152;2023-07-28T12:04:28;1.70;;;0.70;;
26512;SDS011;14186;53.822;10.152;2023-07-28T12:09:29;1.17;;;0.50;;
26512;SDS011;14186;53.822;10.152;2023-07-28T12:14:34;0.77;;;0.47;;
26512;SDS011;14186;53.822;10.152;2023-07-28T12:19:36;1.13;;;0.50;;
26512;SDS011;14186;53.822;10.152;2023-07-28T12:24:40;1.40;;;0.75;;
26512;SDS011;14186;53.822;10.152;2023-07-28T12:29:41;0.90;;;0.52;;
26512;SDS011;14186;53.822;10.152;2023-07-28T12:34:42;1.30;;;0.55;;
26512;SDS011;14186;53.822;10.152;2023-07-28T12:39:42;1.90;;;0.70;;
26512;SDS011;14186;53.822;10.152;2023-07-28T12:44:43;1.80;;;0.60;;
26512;SDS011;14186;53.822;10.152;2023-07-28T12:49:44;1.10;;;0.60;;
26512;SDS011;14186;53.822;10.152;2023-07-28T12:54:44;2.38;;;0.88;;
26512;SDS011;14186;53.822;10.152;2023-07-28T12:59:45;1.48;;;0.77;;
26512;SDS011;14186;53.822;10.152;2023-07-28T13:04:46;2.85;;;0.98;;
26512;SDS011;14186;53.822;10.152;2023-07-28T13:09:46;1.83;;;0.73;;
26512;SDS011;14186;53.822;10.152;2023-07-28T13:14:47;1.10;;;0.85;;
26512;SDS011;14186;53.822;10.152;2023-07-28T13:19:48;3.60;;;0.80;;
26512;SDS011;14186;53.822;10.152;2023-07-28T13:24:48;1.63;;;1.00;;
26512;SDS011;14186;53.822;10.152;2023-07-28T13:29:50;1.75;;;1.00;;
26512;SDS011;14186;53.822;10.152;2023-07-28T13:34:50;1.98;;;1.00;;
26512;SDS011;14186;53.822;10.152;2023-07-28T13:39:50;1.85;;;1.08;;
26512;SDS011;14186;53.822;10.152;2023-07-28T13:44:52;2.22;;;1.20;;
26512;SDS011;14186;53.822;10.152;2023-07-28T13:49:52;1.58;;;0.93;;
26512;SDS011;14186;53.822;10.152;2023-07-28T13:54:52;1.42;;;0.90;;
26512;SDS011;14186;53.822;10.152;2023-07-28T13:59:54;2.17;;;0.88;;
26512;SDS011;14186;53.822;10.152;2023-07-28T14:04:54;2.75;;;1.10;;
26512;SDS011;14186;53.822;10.152;2023-07-28T14:09:54;1.88;;;0.80;;
26512;SDS011;14186;53.822;10.152;2023-07-28T14:14:56;2.67;;;0.85;;
26512;SDS011;14186;53.822;10.152;2023-07-28T14:19:56;1.42;;;0.73;;
26512;SDS011;14186;53.822;10.152;2023-07-28T14:24:56;2.15;;;1.40;;
26512;SDS011;14186;53.822;10.152;2023-07-28T14:29:58;0.90;;;0.68;;
26512;SDS011;14186;53.822;10.152;2023-07-28T14:34:58;0.98;;;0.60;;
26512;SDS011;14186;53.822;10.152;2023-07-28T14:39:58;1.65;;;0.90;;
26512;SDS011;14186;53.822;10.152;2023-07-28T14:44:59;1.38;;;0.80;;
26512;SDS011;14186;53.822;10.152;2023-07-28T14:50:00;2.38;;;0.80;;
26512;SDS011;14186;53.822;10.152;2023-07-28T14:55:00;2.13;;;0.80;;
26512;SDS011;14186;53.822;10.152;2023-07-28T15:00:02;3.22;;;0.60;;
26512;SDS011;14186;53.822;10.152;2023-07-28T15:05:02;1.25;;;0.70;;
26512;SDS011;14186;53.822;10.152;2023-07-28T15:10:02;1.65;;;1.02;;
26512;SDS011;14186;53.822;10.152;2023-07-28T15:15:04;1.27;;;0.70;;
26512;SDS011;14186;53.822;10.152;2023-07-28T15:20:05;1.52;;;1.05;;
26512;SDS011;14186;53.822;10.152;2023-07-28T15:25:06;0.75;;;0.60;;
26512;SDS011;14186;53.822;10.152;2023-07-28T15:30:08;1.00;;;0.90;;
26512;SDS011;14186;53.822;10.152;2023-07-28T15:35:09;1.10;;;0.80;;
26512;SDS011;14186;53.822;10.152;2023-07-28T15:40:09;0.73;;;0.67;;
26512;SDS011;14186;53.822;10.152;2023-07-28T15:45:11;1.00;;;0.60;;
26512;SDS011;14186;53.822;10.152;2023-07-28T15:50:12;0.63;;;0.60;;
26512;SDS011;14186;53.822;10.152;2023-07-28T15:55:12;2.40;;;0.50;;
26512;SDS011;14186;53.822;10.152;2023-07-28T16:00:14;2.47;;;0.60;;
26512;SDS011;14186;53.822;10.152;2023-07-28T16:05:14;1.48;;;0.90;;
26512;SDS011;14186;53.822;10.152;2023-07-28T16:10:15;0.82;;;0.70;;
26512;SDS011;14186;53.822;10.152;2023-07-28T16:15:16;1.33;;;0.75;;
26512;SDS011;14186;53.822;10.152;2023-07-28T16:20:16;0.68;;;0.60;;
26512;SDS011;14186;53.822;10.152;2023-07-28T16:25:17;0.90;;;0.50;;
26512;SDS011;14186;53.822;10.152;2023-07-28T16:30:19;0.70;;;0.60;;
26512;SDS011;14186;53.822;10.152;2023-07-28T16:35:19;1.15;;;0.70;;
26512;SDS011;14186;53.822;10.152;2023-07-28T16:40:19;1.52;;;0.63;;
26512;SDS011;14186;53.822;10.152;2023-07-28T16:45:21;1.33;;;0.60;;
26512;SDS011;14186;53.822;10.152;2023-07-28T16:50:21;1.08;;;0.90;;
26512;SDS011;14186;53.822;10.152;2023-07-28T16:55:21;1.90;;;0.80;;
26512;SDS011;14186;53.822;10.152;2023-07-28T17:00:23;0.82;;;0.60;;
26512;SDS011;14186;53.822;10.152;2023-07-28T17:05:23;1.13;;;0.70;;
26512;SDS011;14186;53.822;10.152;2023-07-28T17:10:23;1.13;;;0.60;;
26512;SDS011;14186;53.822;10.152;2023-07-28T17:15:25;2.38;;;0.70;;
26512;SDS011;14186;53.822;10.152;2023-07-28T17:20:25;2.85;;;0.50;;
26512;SDS011;14186;53.822;10.152;2023-07-28T17:25:26;1.35;;;0.70;;
26512;SDS011;14186;53.822;10.152;2023-07-28T17:30:27;1.10;;;0.57;;
26512;SDS011;14186;53.822;10.152;2023-07-28T17:35:27;1.63;;;0.70;;
26512;SDS011;14186;53.822;10.152;2023-07-28T17:40:28;0.60;;;0.47;;
26512;SDS011;14186;53.822;10.152;2023-07-28T17:45:29;0.70;;;0.40;;
26512;SDS011;14186;53.822;10.152;2023-07-28T17:50:29;0.60;;;0.50;;
26512;SDS011;14186;53.822;10.152;2023-07-28T17:55:30;1.40;;;0.70;;
26512;SDS011;14186;53.822;10.152;2023-07-28T18:00:31;2.13;;;0.60;;
26512;SDS011;14186;53.822;10.152;2023-07-28T18:05:31;0.63;;;0.50;;
26512;SDS011;14186;53.822;10.152;2023-07-28T18:10:32;2.08;;;0.70;;
26512;SDS011;14186;53.822;10.152;2023-07-28T18:15:33;1.38;;;0.77;;
26512;SDS011;14186;53.822;10.152;2023-07-28T18:20:33;1.90;;;0.88;;
26512;SDS011;14186;53.822;10.152;2023-07-28T18:25:34;1.65;;;0.85;;
26512;SDS011;14186;53.822;10.152;2023-07-28T18:30:35;1.30;;;0.73;;
26512;SDS011;14186;53.822;10.152;2023-07-28T18:35:35;2.25;;;0.95;;
26512;SDS011;14186;53.822;10.152;2023-07-28T18:40:36;3.47;;;0.80;;
26512;SDS011;14186;53.822;10.152;2023-07-28T18:45:37;2.30;;;0.90;;
26512;SDS011;14186;53.822;10.152;2023-07-28T18:50:38;2.35;;;1.10;;
26512;SDS011;14186;53.822;10.152;2023-07-28T18:55:38;2.13;;;0.90;;
26512;SDS011;14186;53.822;10.152;2023-07-28T19:00:39;1.63;;;1.23;;
26512;SDS011;14186;53.822;10.152;2023-07-28T19:05:40;1.67;;;1.25;;
26512;SDS011;14186;53.822;10.152;2023-07-28T19:10:40;1.92;;;1.05;;
26512;SDS011;14186;53.822;10.152;2023-07-28T19:15:41;2.45;;;1.20;;
26512;SDS011;14186;53.822;10.152;2023-07-28T19:20:42;1.85;;;1.23;;
26512;SDS011;14186;53.822;10.152;2023-07-28T19:25:42;2.30;;;1.40;;
26512;SDS011;14186;53.822;10.152;2023-07-28T19:30:43;2.95;;;1.60;;
26512;SDS011;14186;53.822;10.152;2023-07-28T19:35:44;2.67;;;1.65;;
26512;SDS011;14186;53.822;10.152;2023-07-28T19:40:44;1.88;;;1.23;;
26512;SDS011;14186;53.822;10.152;2023-07-28T19:45:46;1.83;;;1.17;;
26512;SDS011;14186;53.822;10.152;2023-07-28T19:50:46;2.08;;;1.27;;
26512;SDS011;14186;53.822;10.152;2023-07-28T19:55:46;2.05;;;1.33;;
26512;SDS011;14186;53.822;10.152;2023-07-28T20:00:49;2.90;;;1.92;;
26512;SDS011;14186;53.822;10.152;2023-07-28T20:05:49;2.92;;;1.83;;
26512;SDS011;14186;53.822;10.152;2023-07-28T20:10:49;3.65;;;1.98;;
26512;SDS011;14186;53.822;10.152;2023-07-28T20:15:51;6.00;;;2.08;;
26512;SDS011;14186;53.822;10.152;2023-07-28T20:20:51;2.10;;;1.50;;
26512;SDS011;14186;53.822;10.152;2023-07-28T20:25:51;2.95;;;2.05;;
26512;SDS011;14186;53.822;10.152;2023-07-28T20:30:53;3.03;;;1.58;;
26512;SDS011;14186;53.822;10.152;2023-07-28T20:35:53;2.78;;;1.75;;
26512;SDS011;14186;53.822;10.152;2023-07-28T20:40:53;3.13;;;2.03;;
26512;SDS011;14186;53.822;10.152;2023-07-28T20:45:55;3.58;;;2.10;;
26512;SDS011;14186;53.822;10.152;2023-07-28T20:50:55;5.07;;;3.15;;
26512;SDS011;14186;53.822;10.152;2023-07-28T20:55:55;3.10;;;2.05;;
26512;SDS011;14186;53.822;10.152;2023-07-28T21:00:57;3.97;;;2.40;;
26512;SDS011;14186;53.822;10.152;2023-07-28T21:05:57;2.75;;;1.98;;
26512;SDS011;14186;53.822;10.152;2023-07-28T21:10:57;2.92;;;1.90;;
26512;SDS011;14186;53.822;10.152;2023-07-28T21:15:59;4.25;;;2.17;;
26512;SDS011;14186;53.822;10.152;2023-07-28T21:20:59;4.43;;;2.03;;
26512;SDS011;14186;53.822;10.152;2023-07-28T21:25:59;7.15;;;2.97;;
26512;SDS011;14186;53.822;10.152;2023-07-28T21:31:01;3.80;;;2.20;;
26512;SDS011;14186;53.822;10.152;2023-07-28T21:36:01;3.58;;;1.90;;
26512;SDS011;14186;53.822;10.152;2023-07-28T21:41:01;3.70;;;2.17;;
26512;SDS011;14186;53.822;10.152;2023-07-28T21:46:03;3.45;;;2.42;;
26512;SDS011;14186;53.822;10.152;2023-07-28T21:51:03;3.08;;;2.15;;
26512;SDS011;14186;53.822;10.152;2023-07-28T21:56:04;3.58;;;2.25;;
26512;SDS011;14186;53.822;10.152;2023-07-28T22:01:05;4.40;;;3.33;;
26512;SDS011;14186;53.822;10.152;2023-07-28T22:06:05;6.22;;;3.10;;
26512;SDS011;14186;53.822;10.152;2023-07-28T22:11:06;4.20;;;2.83;;
26512;SDS011;14186;53.822;10.152;2023-07-28T22:16:07;4.55;;;2.67;;
26512;SDS011;14186;53.822;10.152;2023-07-28T22:21:07;4.03;;;2.90;;
26512;SDS011;14186;53.822;10.152;2023-07-28T22:26:08;5.15;;;2.97;;
26512;SDS011;14186;53.822;10.152;2023-07-28T22:31:09;3.80;;;2.72;;
26512;SDS011;14186;53.822;10.152;2023-07-28T22:36:09;5.78;;;3.42;;
26512;SDS011;14186;53.822;10.152;2023-07-28T22:41:10;3.63;;;2.60;;
26512;SDS011;14186;53.822;10.152;2023-07-28T22:46:11;4.50;;;3.20;;
26512;SDS011;14186;53.822;10.152;2023-07-28T22:51:11;4.82;;;3.00;;
26512;SDS011;14186;53.822;10.152;2023-07-28T22:56:12;4.00;;;2.75;;
26512;SDS011;14186;53.822;10.152;2023-07-28T23:01:13;4.85;;;3.00;;
26512;SDS011;14186;53.822;10.152;2023-07-28T23:06:13;6.20;;;3.00;;
26512;SDS011;14186;53.822;10.152;2023-07-28T23:11:14;4.80;;;3.30;;
26512;SDS011;14186;53.822;10.152;2023-07-28T23:16:15;4.55;;;3.10;;
26512;SDS011;14186;53.822;10.152;2023-07-28T23:21:15;4.82;;;3.28;;
26512;SDS011;14186;53.822;10.152;2023-07-28T23:26:16;5.75;;;3.17;;
26512;SDS011;14186;53.822;10.152;2023-07-28T23:31:17;4.57;;;3.40;;
26512;SDS011;14186;53.822;10.152;2023-07-28T23:36:17;6.10;;;3.97;;
26512;SDS011;14186;53.822;10.152;2023-07-28T23:41:18;6.00;;;3.67;;
26512;SDS011;14186;53.822;10.152;2023-07-28T23:46:19;6.28;;;3.55;;
26512;SDS011;14186;53.822;10.152;2023-07-28T23:51:19;6.22;;;4.65;;
26512;SDS011;14186;53.822;10.152;2023-07-28T23:56:20;8.88;;;4.18;;
